createdAt,value
2019-03-12T00:01:37.624Z,3.20
2019-03-12T00:04:07.472Z,4.00
2019-03-12T00:06:37.503Z,3.03
2019-03-12T00:09:07.628Z,3.60
2019-03-12T00:11:38.179Z,3.43
2019-03-12T00:14:07.999Z,3.33
2019-03-12T00:16:37.905Z,3.50
2019-03-12T00:19:07.875Z,3.30
2019-03-12T00:21:37.901Z,3.57
2019-03-12T00:24:07.590Z,3.57
2019-03-12T00:26:37.811Z,4.10
2019-03-12T00:29:07.784Z,4.17
2019-03-12T00:31:37.814Z,3.37
2019-03-12T00:34:07.523Z,3.67
2019-03-12T00:36:37.239Z,4.17
2019-03-12T00:39:06.915Z,4.20
2019-03-12T00:41:38.505Z,5.00
2019-03-12T00:44:08.516Z,4.97
2019-03-12T00:46:38.495Z,4.63
2019-03-12T00:49:08.473Z,5.63
2019-03-12T00:51:38.210Z,5.30
2019-03-12T00:54:08.161Z,6.07
2019-03-12T00:56:37.818Z,6.83
2019-03-12T00:59:07.692Z,7.00
2019-03-12T01:01:37.319Z,7.67
2019-03-12T01:04:07.384Z,7.87
2019-03-12T01:06:37.098Z,7.23
2019-03-12T01:09:08.163Z,7.67
2019-03-12T01:11:38.207Z,8.33
2019-03-12T01:14:08.044Z,8.60
2019-03-12T01:16:37.751Z,8.30
2019-03-12T01:19:07.728Z,8.70
2019-03-12T01:21:37.376Z,8.87
2019-03-12T01:24:07.274Z,8.97
2019-03-12T01:26:37.007Z,9.97
2019-03-12T01:29:06.726Z,8.93
2019-03-12T01:31:36.492Z,9.90
2019-03-12T01:34:06.434Z,9.70
2019-03-12T01:36:36.175Z,10.20
2019-03-12T01:39:07.681Z,10.17
2019-03-12T01:41:38.796Z,11.27
2019-03-12T01:44:08.475Z,10.17
2019-03-12T01:46:38.484Z,11.20
2019-03-12T01:49:08.131Z,10.83
2019-03-12T01:51:38.040Z,10.83
2019-03-12T01:54:08.040Z,12.13
2019-03-12T01:56:38.941Z,12.57
2019-03-12T01:59:08.604Z,12.63
2019-03-12T02:01:38.286Z,12.20
2019-03-12T02:04:08.176Z,12.57
2019-03-12T02:06:38.180Z,14.40
2019-03-12T02:09:09.408Z,14.87
2019-03-12T02:11:39.408Z,15.40
2019-03-12T02:14:26.404Z,15.17
2019-03-12T02:16:56.112Z,15.63
2019-03-12T02:19:26.079Z,15.87
2019-03-12T02:21:56.094Z,15.00
2019-03-12T02:24:25.741Z,16.83
2019-03-12T02:26:55.390Z,16.90
2019-03-12T02:29:25.424Z,16.60
2019-03-12T02:31:55.082Z,16.60
2019-03-12T02:34:24.728Z,17.30
2019-03-12T02:36:54.377Z,16.50
2019-03-12T02:39:24.020Z,15.53
2019-03-12T02:41:53.662Z,16.27
2019-03-12T02:44:23.837Z,16.33
2019-03-12T02:46:53.545Z,15.37
2019-03-12T02:49:23.200Z,15.63
2019-03-12T02:51:52.832Z,16.00
2019-03-12T02:54:22.483Z,16.07
2019-03-12T02:56:52.395Z,16.17
2019-03-12T02:59:22.321Z,17.03
2019-03-12T03:01:52.101Z,16.73
2019-03-12T03:04:21.751Z,17.73
2019-03-12T03:07:13.065Z,17.87
2019-03-12T03:09:42.785Z,17.33
2019-03-12T03:12:12.694Z,17.10
2019-03-12T03:14:42.340Z,19.23
2019-03-12T03:17:15.372Z,19.30
2019-03-12T03:19:45.088Z,19.07
2019-03-12T03:22:14.772Z,19.60
2019-03-12T03:24:44.740Z,18.57
2019-03-12T03:27:14.419Z,20.10
2019-03-12T03:29:44.360Z,19.60
2019-03-12T03:32:14.021Z,18.87
2019-03-12T03:34:43.730Z,19.83
2019-03-12T03:37:13.360Z,19.93
2019-03-12T03:39:43.016Z,19.47
2019-03-12T03:42:15.175Z,20.33
2019-03-12T03:44:45.145Z,19.57
2019-03-12T03:47:14.780Z,19.87
2019-03-12T03:49:44.449Z,20.40
2019-03-12T03:52:14.411Z,21.13
2019-03-12T03:54:44.070Z,21.60
2019-03-12T03:57:14.104Z,21.50
2019-03-12T03:59:44.146Z,20.00
2019-03-12T04:02:14.189Z,20.63
2019-03-12T04:04:43.836Z,20.87
2019-03-12T04:07:13.485Z,20.93
2019-03-12T04:09:43.118Z,20.63
2019-03-12T04:12:12.836Z,19.20
2019-03-12T04:14:42.636Z,19.07
2019-03-12T04:17:12.400Z,19.00
2019-03-12T04:19:43.595Z,19.47
2019-03-12T04:22:13.572Z,17.50
2019-03-12T04:24:43.529Z,19.70
2019-03-12T04:27:13.179Z,19.00
2019-03-12T04:29:42.876Z,19.43
2019-03-12T04:32:12.879Z,18.83
2019-03-12T04:34:43.181Z,17.53
2019-03-12T04:37:12.820Z,18.77
2019-03-12T04:39:42.691Z,18.03
2019-03-12T04:42:12.500Z,17.30
2019-03-12T04:44:42.132Z,17.27
2019-03-12T04:47:11.776Z,16.37
2019-03-12T04:49:41.423Z,17.53
2019-03-12T04:52:11.144Z,16.83
2019-03-12T04:54:40.775Z,17.03
2019-03-12T04:57:10.705Z,16.53
2019-03-12T04:59:40.331Z,15.47
2019-03-12T05:02:09.977Z,16.37
2019-03-12T05:04:39.620Z,16.17
2019-03-12T05:07:09.279Z,16.20
2019-03-12T05:09:39.500Z,16.67
2019-03-12T05:12:09.392Z,16.67
2019-03-12T05:14:41.553Z,16.37
2019-03-12T05:17:19.535Z,16.73
2019-03-12T05:19:50.464Z,17.00
2019-03-12T05:22:24.692Z,17.43
2019-03-12T05:24:54.669Z,17.90
2019-03-12T05:27:25.114Z,16.00
2019-03-12T05:29:54.959Z,17.93
2019-03-12T05:32:24.764Z,16.93
2019-03-12T05:34:54.700Z,17.93
2019-03-12T05:37:25.178Z,16.50
2019-03-12T05:39:54.826Z,16.03
2019-03-12T05:42:24.464Z,15.70
2019-03-12T05:44:54.568Z,16.63
2019-03-12T05:47:24.195Z,14.97
2019-03-12T05:49:54.152Z,17.30
2019-03-12T05:52:23.791Z,16.03
2019-03-12T05:54:53.440Z,17.73
2019-03-12T05:57:23.083Z,17.57
2019-03-12T05:59:52.725Z,19.40
2019-03-12T06:02:22.359Z,18.03
2019-03-12T06:04:52.015Z,19.30
2019-03-12T06:07:22.209Z,20.73
2019-03-12T06:09:52.868Z,19.50
2019-03-12T06:12:22.499Z,21.63
2019-03-12T06:14:53.111Z,22.53
2019-03-12T06:17:23.308Z,22.47
2019-03-12T06:19:52.960Z,23.47
2019-03-12T06:22:22.594Z,21.73
2019-03-12T06:24:52.252Z,21.37
2019-03-12T06:27:21.899Z,23.37
2019-03-12T06:29:51.682Z,22.97
2019-03-12T06:32:29.115Z,23.73
2019-03-12T06:35:14.956Z,21.47
2019-03-12T06:37:52.847Z,20.97
2019-03-12T06:40:33.390Z,20.20
2019-03-12T06:43:28.362Z,19.80
2019-03-12T06:46:23.356Z,18.07
2019-03-12T06:49:14.904Z,18.17
2019-03-12T06:52:15.631Z,17.97
2019-03-12T06:54:54.827Z,18.33
2019-03-12T06:57:32.874Z,18.00
2019-03-12T07:00:21.693Z,17.90
2019-03-12T07:03:02.251Z,19.53
2019-03-12T07:05:53.864Z,18.80
2019-03-12T07:08:42.864Z,20.27
2019-03-12T07:11:30.875Z,20.97
2019-03-12T07:14:11.719Z,21.50
2019-03-12T07:16:46.484Z,20.80
2019-03-12T07:19:27.063Z,20.63
2019-03-12T07:22:09.458Z,25.20
2019-03-12T07:24:48.287Z,20.07
2019-03-12T07:27:25.684Z,19.43
2019-03-12T07:30:14.447Z,18.97
2019-03-12T07:33:02.985Z,17.67
2019-03-12T07:35:52.060Z,16.67
2019-03-12T07:38:36.719Z,20.10
2019-03-12T07:41:26.564Z,14.03
2019-03-12T07:43:55.091Z,12.43
2019-03-12T07:46:33.916Z,12.47
2019-03-12T07:49:17.244Z,11.67
2019-03-12T07:51:56.583Z,10.17
2019-03-12T07:54:36.116Z,9.27
2019-03-12T07:57:23.861Z,8.77
2019-03-12T08:00:02.393Z,8.53
2019-03-12T08:02:43.557Z,8.47
2019-03-12T08:05:35.108Z,8.13
2019-03-12T08:08:24.894Z,8.23
2019-03-12T08:11:26.124Z,7.03
2019-03-12T08:14:21.479Z,6.70
2019-03-12T08:17:09.779Z,6.10
2019-03-12T08:19:46.870Z,7.47
2019-03-12T08:22:31.924Z,6.30
2019-03-12T08:25:12.792Z,5.40
2019-03-12T08:28:01.552Z,6.50
2019-03-12T08:30:36.072Z,6.40
2019-03-12T08:33:16.113Z,6.00
2019-03-12T08:36:10.642Z,6.90
2019-03-12T08:39:08.738Z,5.73
2019-03-12T08:42:03.206Z,6.50
2019-03-12T08:44:50.893Z,6.63
2019-03-12T08:47:39.637Z,5.93
2019-03-12T08:50:17.787Z,6.33
2019-03-12T08:53:00.207Z,7.20
2019-03-12T08:55:52.058Z,12.33
2019-03-12T08:58:43.764Z,8.07
2019-03-12T09:01:20.336Z,16.00
2019-03-12T09:04:07.807Z,5.37
2019-03-12T09:06:46.012Z,10.53
2019-03-12T09:09:37.603Z,5.00
2019-03-12T09:12:25.529Z,5.10
2019-03-12T09:15:04.456Z,4.47
2019-03-12T09:18:01.930Z,5.67
2019-03-12T09:20:41.804Z,4.80
2019-03-12T09:23:29.408Z,4.23
2019-03-12T09:26:16.833Z,4.33
2019-03-12T09:28:53.034Z,4.57
2019-03-12T09:31:40.619Z,3.77
2019-03-12T09:34:26.515Z,4.30
2019-03-12T09:37:14.204Z,4.23
2019-03-12T09:40:18.448Z,4.33
2019-03-12T09:43:01.591Z,4.23
2019-03-12T09:45:56.195Z,4.20
2019-03-12T09:48:34.104Z,4.07
2019-03-12T09:51:23.923Z,4.00
2019-03-12T09:54:10.104Z,4.63
2019-03-12T09:56:52.851Z,4.77
2019-03-12T09:59:51.075Z,4.10
2019-03-12T10:02:49.204Z,4.30
2019-03-12T10:05:27.783Z,4.57
2019-03-12T10:08:19.633Z,4.80
2019-03-12T10:10:57.672Z,4.67
2019-03-12T10:13:40.336Z,4.60
2019-03-12T10:16:27.544Z,4.90
2019-03-12T10:19:15.359Z,4.70
2019-03-12T10:22:00.556Z,4.87
2019-03-12T10:24:48.283Z,4.70
2019-03-12T10:27:43.395Z,4.93
2019-03-12T10:30:27.748Z,5.17
2019-03-12T10:33:04.944Z,4.90
2019-03-12T10:36:00.002Z,4.87
2019-03-12T10:39:11.615Z,5.40
2019-03-12T10:41:49.226Z,5.30
2019-03-12T10:44:34.419Z,5.30
2019-03-12T10:47:08.976Z,4.90
2019-03-12T10:49:38.904Z,5.30
2019-03-12T10:52:08.823Z,5.30
2019-03-12T10:54:38.482Z,5.13
2019-03-12T10:57:08.142Z,5.90
2019-03-12T10:59:37.791Z,6.17
2019-03-12T11:02:07.558Z,6.60
2019-03-12T11:04:37.203Z,6.07
2019-03-12T11:07:16.315Z,6.13
2019-03-12T11:09:38.310Z,6.70
2019-03-12T11:12:09.248Z,7.00
2019-03-12T11:14:38.992Z,7.10
2019-03-12T11:17:08.704Z,6.80
2019-03-12T11:19:38.664Z,7.37
2019-03-12T11:22:08.639Z,7.77
2019-03-12T11:24:38.309Z,7.17
2019-03-12T11:27:08.196Z,7.13
2019-03-12T11:29:37.845Z,7.73
2019-03-12T11:32:07.645Z,8.00
2019-03-12T11:34:38.530Z,7.53
2019-03-12T11:37:08.710Z,8.17
2019-03-12T11:39:38.364Z,7.63
2019-03-12T11:42:08.447Z,7.83
2019-03-12T11:44:38.093Z,7.90
2019-03-12T11:47:07.913Z,7.80
2019-03-12T11:49:37.628Z,8.07
2019-03-12T11:52:07.799Z,7.97
2019-03-12T11:54:37.512Z,7.50
2019-03-12T11:57:07.160Z,8.17
2019-03-12T11:59:36.808Z,8.60
2019-03-12T12:02:06.692Z,8.17
2019-03-12T12:04:36.444Z,7.93
2019-03-12T12:07:07.222Z,8.53
2019-03-12T12:09:36.895Z,8.73
2019-03-12T12:12:06.615Z,7.80
2019-03-12T12:14:36.327Z,8.47
2019-03-12T12:17:06.051Z,9.27
2019-03-12T12:19:35.788Z,8.20
2019-03-12T12:22:05.732Z,8.50
2019-03-12T12:24:35.444Z,8.67
2019-03-12T12:27:05.468Z,8.13
2019-03-12T12:29:35.128Z,8.23
2019-03-12T12:32:04.775Z,8.33
2019-03-12T12:34:34.517Z,8.57
2019-03-12T12:37:04.155Z,8.50
2019-03-12T12:39:34.865Z,9.40
2019-03-12T12:42:04.503Z,7.67
2019-03-12T12:44:34.136Z,7.97
2019-03-12T12:47:03.791Z,7.57
2019-03-12T12:49:33.736Z,7.60
2019-03-12T12:52:03.683Z,7.77
2019-03-12T12:54:34.396Z,7.30
2019-03-12T12:57:04.618Z,6.27
2019-03-12T12:59:34.299Z,5.90
2019-03-12T13:02:04.187Z,6.03
2019-03-12T13:04:34.162Z,5.70
2019-03-12T13:07:03.868Z,5.93
2019-03-12T13:09:34.207Z,5.90
2019-03-12T13:12:04.612Z,5.47
2019-03-12T13:14:41.463Z,5.13
2019-03-12T13:17:05.711Z,4.80
2019-03-12T13:19:35.688Z,4.63
2019-03-12T13:22:06.729Z,5.20
2019-03-12T13:24:36.355Z,5.00
2019-03-12T13:27:06.007Z,4.37
2019-03-12T13:29:35.679Z,4.60
2019-03-12T13:32:13.416Z,4.33
2019-03-12T13:34:37.024Z,4.33
2019-03-12T13:37:07.084Z,4.10
2019-03-12T13:39:37.688Z,3.50
2019-03-12T13:42:07.345Z,3.70
2019-03-12T13:44:37.098Z,3.73
2019-03-12T13:47:06.756Z,3.60
2019-03-12T13:49:36.429Z,3.90
2019-03-12T13:52:06.593Z,3.73
2019-03-12T13:54:36.269Z,3.70
2019-03-12T13:57:05.913Z,3.60
2019-03-12T13:59:35.551Z,3.37
2019-03-12T14:02:05.907Z,3.53
2019-03-12T14:04:35.901Z,3.60
2019-03-12T14:07:05.531Z,3.50
2019-03-12T14:09:35.188Z,3.10
2019-03-12T14:12:05.482Z,3.70
2019-03-12T14:14:35.154Z,2.97
2019-03-12T14:17:04.916Z,3.00
2019-03-12T14:19:35.742Z,3.60
2019-03-12T14:22:07.500Z,3.33
2019-03-12T14:24:37.556Z,3.40
2019-03-12T14:27:07.362Z,3.37
2019-03-12T14:29:37.147Z,3.27
2019-03-12T14:32:06.847Z,4.07
2019-03-12T14:34:36.511Z,3.60
2019-03-12T14:37:06.484Z,3.67
2019-03-12T14:39:36.122Z,3.47
2019-03-12T14:42:05.755Z,3.90
2019-03-12T14:44:35.420Z,3.77
2019-03-12T14:47:06.364Z,4.00
2019-03-12T14:49:36.144Z,3.77
2019-03-12T14:52:30.355Z,3.60
2019-03-12T14:54:59.996Z,3.50
2019-03-12T14:57:29.844Z,4.27
2019-03-12T14:59:59.610Z,3.60
2019-03-12T15:02:29.624Z,3.80
2019-03-12T15:04:59.344Z,3.80
2019-03-12T15:07:29.894Z,3.47
2019-03-12T15:09:59.623Z,3.50
2019-03-12T15:12:29.558Z,3.63
2019-03-12T15:14:59.500Z,3.10
2019-03-12T15:17:29.196Z,3.60
2019-03-12T15:19:58.852Z,3.30
2019-03-12T15:22:28.479Z,3.00
2019-03-12T15:24:58.255Z,2.97
2019-03-12T15:27:28.298Z,3.10
2019-03-12T15:29:57.932Z,3.53
2019-03-12T15:32:27.964Z,3.90
2019-03-12T15:34:57.607Z,3.00
2019-03-12T15:37:27.244Z,3.10
2019-03-12T15:39:57.227Z,3.10
2019-03-12T15:42:26.964Z,3.17
2019-03-12T15:44:56.756Z,3.07
2019-03-12T15:47:26.384Z,3.27
2019-03-12T15:49:57.168Z,3.00
2019-03-12T15:52:26.796Z,2.90
2019-03-12T15:54:56.457Z,2.70
2019-03-12T15:57:26.416Z,2.40
2019-03-12T15:59:56.068Z,2.43
2019-03-12T16:02:26.024Z,2.50
2019-03-12T16:04:56.051Z,2.60
2019-03-12T16:07:28.250Z,2.73
2019-03-12T16:09:59.287Z,2.67
2019-03-12T16:12:29.260Z,2.47
2019-03-12T16:15:00.477Z,2.80
2019-03-12T16:17:30.228Z,2.40
2019-03-12T16:20:00.247Z,2.67
2019-03-12T16:22:30.127Z,2.57
2019-03-12T16:24:59.904Z,2.67
2019-03-12T16:27:29.832Z,2.40
2019-03-12T16:29:59.468Z,3.13
2019-03-12T16:32:29.111Z,2.60
2019-03-12T16:34:59.304Z,2.57
2019-03-12T16:37:29.022Z,2.40
2019-03-12T16:39:58.647Z,2.83
2019-03-12T16:42:34.977Z,2.30
2019-03-12T16:44:59.628Z,2.70
2019-03-12T16:47:29.921Z,2.50
2019-03-12T16:49:59.551Z,2.67
2019-03-12T16:52:29.570Z,2.50
2019-03-12T16:54:59.202Z,2.17
2019-03-12T16:57:28.860Z,2.60
2019-03-12T16:59:59.552Z,2.27
2019-03-12T17:02:29.468Z,2.50
2019-03-12T17:05:02.845Z,2.37
2019-03-12T17:07:32.955Z,2.77
2019-03-12T17:10:04.692Z,2.57
2019-03-12T17:12:34.743Z,2.73
2019-03-12T17:15:04.899Z,2.63
2019-03-12T17:17:36.040Z,2.40
2019-03-12T17:20:06.051Z,3.27
2019-03-12T17:22:36.071Z,2.43
2019-03-12T17:25:06.186Z,2.50
2019-03-12T17:27:36.021Z,2.93
2019-03-12T17:30:07.507Z,3.00
2019-03-12T17:32:37.360Z,2.33
2019-03-12T17:35:08.146Z,2.77
2019-03-12T17:37:37.977Z,2.47
2019-03-12T17:40:10.996Z,2.50
2019-03-12T17:42:41.018Z,2.50
2019-03-12T17:45:11.352Z,2.47
2019-03-12T17:47:41.008Z,2.50
2019-03-12T17:50:10.998Z,2.50
2019-03-12T17:52:40.639Z,2.20
2019-03-12T17:55:11.223Z,2.33
2019-03-12T17:57:41.042Z,2.20
2019-03-12T18:00:14.459Z,2.53
2019-03-12T18:02:44.379Z,2.30
2019-03-12T18:05:14.361Z,2.20
2019-03-12T18:07:44.123Z,2.33
2019-03-12T18:10:14.111Z,2.27
2019-03-12T18:12:44.383Z,2.33
2019-03-12T18:15:14.900Z,2.60
2019-03-12T18:17:44.683Z,2.43
2019-03-12T18:20:15.551Z,2.40
2019-03-12T18:22:45.255Z,2.50
2019-03-12T18:25:19.052Z,2.13
2019-03-12T18:27:48.749Z,2.30
2019-03-12T18:30:18.612Z,2.50
2019-03-12T18:32:48.379Z,2.50
2019-03-12T18:35:18.099Z,2.83
2019-03-12T18:37:48.107Z,3.10
2019-03-12T18:40:18.816Z,2.20
2019-03-12T18:42:48.698Z,2.30
2019-03-12T18:45:20.108Z,2.63
2019-03-12T18:47:50.060Z,2.03
2019-03-12T18:50:19.976Z,1.93
2019-03-12T18:52:49.680Z,2.33
2019-03-12T18:56:04.215Z,3.90
2019-03-12T18:58:34.010Z,2.77
2019-03-12T19:01:12.739Z,2.43
2019-03-12T19:03:42.731Z,2.80
2019-03-12T19:06:12.460Z,2.13
2019-03-12T19:08:47.460Z,2.07
2019-03-12T19:11:13.593Z,2.60
2019-03-12T19:13:44.176Z,2.50
2019-03-12T19:16:14.084Z,2.40
2019-03-12T19:18:43.799Z,2.20
2019-03-12T19:21:13.952Z,2.47
2019-03-12T19:23:43.586Z,2.20
2019-03-12T19:26:13.413Z,8.70
2019-03-12T19:28:43.188Z,3.80
2019-03-12T19:31:31.991Z,3.13
2019-03-12T19:34:07.036Z,4.20
2019-03-12T19:36:37.398Z,3.03
2019-03-12T19:39:09.307Z,2.83
2019-03-12T19:41:40.452Z,2.53
2019-03-12T19:44:10.392Z,2.80
2019-03-12T19:46:40.124Z,2.50
2019-03-12T19:49:09.750Z,2.10
2019-03-12T19:51:39.694Z,2.40
2019-03-12T19:54:09.540Z,2.23
2019-03-12T19:56:39.247Z,2.17
2019-03-12T19:59:08.879Z,2.60
2019-03-12T20:01:39.454Z,2.62
2019-03-12T20:04:09.176Z,2.67
2019-03-12T20:06:39.067Z,26.17
2019-03-12T20:09:09.859Z,2.63
2019-03-12T20:12:37.848Z,7.00
2019-03-12T20:15:54.578Z,3.50
2019-03-12T20:19:00.731Z,3.97
2019-03-12T20:22:11.096Z,2.90
2019-03-12T20:25:18.453Z,2.20
2019-03-12T20:28:15.903Z,2.20
2019-03-12T20:31:24.431Z,2.97
2019-03-12T20:34:48.111Z,2.27
2019-03-12T20:37:53.780Z,2.60
2019-03-12T20:41:16.238Z,2.10
2019-03-12T20:44:22.536Z,2.00
2019-03-12T20:47:24.760Z,2.00
2019-03-12T20:50:32.982Z,2.17
2019-03-12T20:53:39.063Z,2.03
2019-03-12T20:56:44.984Z,3.17
2019-03-12T20:59:50.739Z,4.43
2019-03-12T21:03:00.762Z,5.40
2019-03-12T21:06:10.177Z,9.63
2019-03-12T21:09:22.871Z,4.90
2019-03-12T21:12:48.340Z,6.67
2019-03-12T21:15:43.030Z,3.60
2019-03-12T21:19:22.155Z,4.37
2019-03-12T21:22:39.715Z,3.17
2019-03-12T21:25:48.312Z,3.83
2019-03-12T21:28:37.110Z,3.67
2019-03-12T21:31:07.255Z,2.50
2019-03-12T21:33:37.459Z,2.37
2019-03-12T21:36:08.401Z,2.33
2019-03-12T21:38:39.221Z,2.90
2019-03-12T21:41:09.025Z,2.70
2019-03-12T21:43:38.732Z,2.80
2019-03-12T21:46:09.017Z,3.07
2019-03-12T21:48:38.954Z,3.50
2019-03-12T21:51:08.587Z,2.47
2019-03-12T21:53:38.295Z,2.30
2019-03-12T21:56:08.236Z,2.30
2019-03-12T21:58:38.133Z,2.30
2019-03-12T22:01:07.755Z,3.10
2019-03-12T22:03:37.404Z,2.60
2019-03-12T22:06:07.035Z,2.20
2019-03-12T22:08:36.692Z,2.23
2019-03-12T22:11:06.504Z,2.03
2019-03-12T22:13:37.123Z,2.30
2019-03-12T22:16:06.743Z,1.97
2019-03-12T22:18:36.646Z,2.30
2019-03-12T22:21:06.719Z,2.20
2019-03-12T22:23:39.896Z,2.20
2019-03-12T22:26:09.524Z,2.20
2019-03-12T22:28:39.162Z,2.30
2019-03-12T22:31:08.799Z,1.93
2019-03-12T22:33:38.488Z,1.97
2019-03-12T22:36:08.361Z,1.97
2019-03-12T22:38:38.028Z,2.20
2019-03-12T22:41:09.037Z,1.77
2019-03-12T22:43:38.789Z,1.80
2019-03-12T22:46:08.487Z,2.30
2019-03-12T22:48:38.420Z,2.23
2019-03-12T22:51:08.663Z,1.97
2019-03-12T22:53:38.304Z,2.00
2019-03-12T22:56:08.051Z,2.40
2019-03-12T22:58:37.937Z,2.23
2019-03-12T23:01:25.772Z,2.03
2019-03-12T23:04:13.347Z,2.00
2019-03-12T23:07:01.456Z,1.80
2019-03-12T23:09:42.352Z,1.80
2019-03-12T23:12:16.695Z,2.20
2019-03-12T23:14:46.948Z,2.10
2019-03-12T23:17:18.308Z,2.00
2019-03-12T23:19:48.311Z,1.87
2019-03-12T23:22:18.298Z,2.30
2019-03-12T23:24:48.555Z,1.93
2019-03-12T23:27:18.355Z,2.50
2019-03-12T23:29:48.476Z,2.33
2019-03-12T23:32:19.554Z,2.60
2019-03-12T23:34:49.478Z,2.27
2019-03-12T23:37:19.572Z,2.60
2019-03-12T23:39:49.215Z,2.90
2019-03-12T23:42:18.924Z,2.40
2019-03-12T23:44:48.569Z,2.60
2019-03-12T23:47:18.585Z,2.70
2019-03-12T23:49:48.419Z,2.40
2019-03-12T23:52:18.390Z,2.17
2019-03-12T23:54:48.099Z,2.60
2019-03-12T23:57:18.709Z,2.60
2019-03-12T23:59:48.747Z,2.50
